Time;durP1;ratioP1;P1;durP2;ratioP2;P2;SDS_P1;SDS_P2;PMS_P1;PMS_P2;Temp;Humidity;BMP_temperature;BMP_pressure;BME280_temperature;BME280_humidity;BME280_pressure;Samples;Min_cycle;Max_cycle;Signal;HPM_P1;HPM_P2
2022/03/22 00:01:06;;;;;;;11.40;5.60;;;;;;;7.89;36.44;102069.42;117321;1185;23544;-49
2022/03/22 00:03:35;;;;;;;12.20;5.20;;;;;;;7.86;36.54;102065.15;117418;1179;21844;-62
2022/03/22 00:06:04;;;;;;;12.70;5.60;;;;;;;7.82;36.63;102063.66;117419;1186;23472;-49
2022/03/22 00:08:33;;;;;;;12.60;5.70;;;;;;;7.81;36.54;102061.16;117286;1185;22646;-60
2022/03/22 00:11:16;;;;;;;9.30;5.00;;;;;;;7.78;36.60;102062.65;117249;1185;23445;-49
2022/03/22 00:13:44;;;;;;;11.10;5.10;;;;;;;7.74;36.72;102060.11;117336;1186;22082;-59
2022/03/22 00:16:13;;;;;;;8.70;3.90;;;;;;;7.73;36.75;102058.69;117424;1186;22941;-61
2022/03/22 00:19:02;;;;;;;12.20;4.50;;;;;;;7.73;36.98;102059.73;117400;1186;23472;-50
2022/03/22 00:21:32;;;;;;;11.50;4.70;;;;;;;7.71;37.00;102060.22;117434;1186;23547;-61
2022/03/22 00:24:01;;;;;;;10.40;5.00;;;;;;;7.69;36.80;102058.41;117307;1185;23547;-61
2022/03/22 00:26:30;;;;;;;8.90;4.30;;;;;;;7.66;36.94;102053.98;117360;1184;22167;-62
2022/03/22 00:28:59;;;;;;;8.90;4.70;;;;;;;7.64;37.03;102053.71;117381;1184;24168;-50
2022/03/22 00:31:31;;;;;;;10.30;4.50;;;;;;;7.61;36.76;102051.58;117413;1185;22836;-52
2022/03/22 00:34:00;;;;;;;9.90;4.80;;;;;;;7.58;36.88;102044.48;117323;1185;23615;-50
2022/03/22 00:36:31;;;;;;;10.80;5.00;;;;;;;7.54;37.00;102043.85;117400;1183;23579;-51
2022/03/22 00:38:59;;;;;;;10.50;4.40;;;;;;;7.50;37.16;102043.23;117433;1185;21876;-61
2022/03/22 00:41:28;;;;;;;7.50;4.00;;;;;;;7.44;36.90;102037.14;117321;1186;23445;-60
2022/03/22 00:43:56;;;;;;;9.60;3.90;;;;;;;7.42;36.90;102040.92;117324;1184;23448;-49
2022/03/22 00:46:25;;;;;;;16.50;4.60;;;;;;;7.39;37.09;102040.83;117326;1182;21845;-50
2022/03/22 00:48:53;;;;;;;12.50;4.80;;;;;;;7.35;37.26;102035.65;117328;1184;22997;-61
2022/03/22 00:51:24;;;;;;;15.80;4.90;;;;;;;7.31;37.04;102034.49;117321;1185;24161;-50
2022/03/22 00:53:52;;;;;;;9.30;4.00;;;;;;;7.29;37.14;102037.59;117322;1185;22918;-49
2022/03/22 00:56:23;;;;;;;11.80;5.20;;;;;;;7.25;37.08;102037.13;117465;1185;24148;-61
2022/03/22 01:00:01;;;;;;;11.10;4.70;;;;;;;7.19;37.04;102035.73;117344;1188;22934;-61
2022/03/22 01:01:41;;;;;;;9.50;4.40;;;;;;;7.12;37.31;102035.38;117326;1185;22616;-61
2022/03/22 01:04:10;;;;;;;13.00;4.90;;;;;;;7.10;37.20;102033.56;117331;1186;24172;-61
2022/03/22 01:06:38;;;;;;;10.90;4.40;;;;;;;7.08;37.29;102035.95;117311;1185;23459;-50
2022/03/22 01:09:10;;;;;;;11.40;4.80;;;;;;;7.06;37.30;102033.45;117322;1186;21888;-50
2022/03/22 01:11:39;;;;;;;;;;;;;;;7.03;37.41;102034.41;117329;1182;22967;-50
2022/03/22 01:14:25;;;;;;;9.50;4.70;;;;;;;7.00;37.62;102033.30;117314;1185;24163;-50
2022/03/22 01:16:56;;;;;;;10.10;4.40;;;;;;;6.98;37.46;102032.17;117280;1185;24293;-50
2022/03/22 01:19:29;;;;;;;10.20;5.20;;;;;;;6.96;37.50;102036.84;117323;1185;22943;-50
2022/03/22 01:21:59;;;;;;;10.60;4.80;;;;;;;6.95;37.66;102035.77;117336;1185;21852;-50
2022/03/22 01:24:29;;;;;;;7.80;4.20;;;;;;;6.94;37.56;102038.34;117389;1184;21883;-62
2022/03/22 01:26:57;;;;;;;9.00;3.60;;;;;;;6.92;37.48;102040.39;117421;1184;23471;-62
2022/03/22 01:29:26;;;;;;;13.20;5.20;;;;;;;6.88;37.63;102039.07;117386;1185;23449;-50
2022/03/22 01:31:55;;;;;;;11.20;5.20;;;;;;;6.85;37.73;102039.83;117337;1185;23548;-62
2022/03/22 01:34:24;;;;;;;9.70;4.70;;;;;;;6.82;37.81;102038.86;117370;1184;23356;-50
2022/03/22 01:36:53;;;;;;;8.50;4.40;;;;;;;6.77;37.46;102037.67;117428;1186;21895;-62
2022/03/22 01:39:21;;;;;;;10.40;4.70;;;;;;;6.70;37.57;102037.83;117339;1185;23448;-62
2022/03/22 01:41:49;;;;;;;10.60;4.80;;;;;;;6.66;37.76;102036.30;117404;1184;21849;-62
2022/03/22 01:44:18;;;;;;;7.80;4.20;;;;;;;6.61;37.66;102039.64;117423;1184;23452;-62
2022/03/22 01:46:48;;;;;;;10.00;4.70;;;;;;;6.57;37.42;102035.32;117355;1185;21840;-50
2022/03/22 01:49:16;;;;;;;9.10;4.70;;;;;;;6.53;37.82;102035.55;117340;1184;23472;-50
2022/03/22 01:51:45;;;;;;;9.80;4.50;;;;;;;6.48;37.93;102037.32;117225;1186;22449;-51
2022/03/22 01:54:14;;;;;;;10.30;5.10;;;;;;;6.42;37.99;102039.41;117210;1188;23550;-47
2022/03/22 01:56:43;;;;;;;7.60;4.50;;;;;;;6.37;38.03;102036.98;117338;1185;23483;-62
2022/03/22 01:59:13;;;;;;;10.60;5.10;;;;;;;6.33;37.97;102031.47;117373;1186;23449;-48
2022/03/22 02:07:16;;;;;;;11.50;4.80;;;;;;;6.22;38.05;102034.21;117389;1185;22995;-60
2022/03/22 02:09:45;;;;;;;10.30;5.10;;;;;;;6.19;38.14;102029.27;117453;1186;21849;-60
2022/03/22 02:12:13;;;;;;;11.20;5.00;;;;;;;6.17;38.34;102027.48;117335;1185;21858;-48
2022/03/22 02:14:43;;;;;;;11.10;4.70;;;;;;;6.18;38.15;102026.44;117425;1185;24155;-48
2022/03/22 02:17:11;;;;;;;10.30;4.80;;;;;;;6.18;38.15;102026.27;117411;1188;21858;-60
2022/03/22 02:19:40;;;;;;;13.10;5.40;;;;;;;6.17;38.50;102025.90;117421;1185;24216;-60
2022/03/22 02:22:11;;;;;;;10.90;5.90;;;;;;;6.18;38.63;102027.85;117379;1184;21976;-48
2022/03/22 02:24:39;;;;;;;10.30;5.30;;;;;;;6.20;38.51;102026.67;117317;1182;22313;-48
2022/03/22 02:27:09;;;;;;;9.80;5.10;;;;;;;6.20;38.59;102023.38;117358;1185;21904;-48
2022/03/22 02:29:37;;;;;;;10.40;4.90;;;;;;;6.24;38.78;102024.71;117416;1185;22899;-48
2022/03/22 02:32:09;;;;;;;13.30;5.50;;;;;;;6.27;38.63;102024.80;117402;1186;23622;-49
2022/03/22 02:34:39;;;;;;;11.50;5.50;;;;;;;6.29;38.66;102022.95;117553;1185;21855;-48
2022/03/22 02:37:08;;;;;;;9.30;5.10;;;;;;;6.32;38.59;102023.57;117552;1185;23553;-60
2022/03/22 02:39:37;;;;;;;12.30;5.70;;;;;;;6.35;38.75;102026.45;117329;1185;23544;-48
2022/03/22 02:42:06;;;;;;;14.00;5.70;;;;;;;6.37;38.85;102022.52;117493;1185;23580;-60
2022/03/22 02:44:35;;;;;;;10.10;4.90;;;;;;;6.39;38.86;102021.37;117435;1185;22925;-60
2022/03/22 02:47:04;;;;;;;10.90;5.00;;;;;;;6.41;38.88;102026.65;117539;1183;23493;-49
2022/03/22 02:49:34;;;;;;;11.20;5.10;;;;;;;6.41;38.90;102027.50;117511;1185;21855;-49
2022/03/22 02:52:03;;;;;;;;;;;;;;;6.40;38.78;102027.48;117399;1185;22918;-60
2022/03/22 02:54:31;;;;;;;10.10;4.80;;;;;;;6.38;38.94;102029.02;117465;1185;21901;-63
2022/03/22 02:57:00;;;;;;;12.40;5.50;;;;;;;6.35;39.01;102029.08;117502;1185;23445;-48
2022/03/22 02:59:29;;;;;;;12.90;5.60;;;;;;;6.33;39.07;102026.22;117373;1184;21860;-60
2022/03/22 03:01:57;;;;;;;12.70;5.60;;;;;;;6.32;38.96;102025.48;117407;1184;22941;-49
2022/03/22 03:04:26;;;;;;;9.50;5.30;;;;;;;6.30;38.86;102025.95;117419;1186;23461;-49
2022/03/22 03:06:54;;;;;;;12.90;5.60;;;;;;;6.28;39.08;102021.19;117475;1184;24718;-49
2022/03/22 03:09:23;;;;;;;10.20;5.40;;;;;;;6.28;39.07;102022.73;117482;1184;23542;-59
2022/03/22 03:11:51;;;;;;;12.90;5.60;;;;;;;6.27;39.21;102017.48;117433;1185;21846;-49
2022/03/22 03:14:40;;;;;;;11.30;4.70;;;;;;;6.27;39.14;102016.60;117340;1186;21855;-49
2022/03/22 03:17:13;;;;;;;11.50;4.90;;;;;;;6.28;39.23;102019.94;117422;1186;21854;-49
2022/03/22 03:19:42;;;;;;;12.40;5.20;;;;;;;6.30;39.29;102022.98;117358;1185;21935;-50
2022/03/22 03:22:12;;;;;;;10.20;4.60;;;;;;;6.33;39.37;102027.09;117472;1185;23488;-60
2022/03/22 03:24:40;;;;;;;11.50;4.90;;;;;;;6.32;39.24;102029.69;117496;1185;22339;-48
2022/03/22 03:27:09;;;;;;;11.00;4.80;;;;;;;6.32;39.31;102028.45;117397;1185;23547;-48
2022/03/22 03:29:38;;;;;;;12.30;4.20;;;;;;;6.31;39.17;102031.71;117502;1184;22921;-49
2022/03/22 03:32:07;;;;;;;13.90;5.00;;;;;;;6.30;39.33;102031.88;117457;1183;24162;-49
2022/03/22 03:34:37;;;;;;;13.60;5.90;;;;;;;6.28;39.44;102030.25;117448;1185;21849;-49
2022/03/22 03:37:06;;;;;;;12.70;5.20;;;;;;;6.26;39.28;102030.35;117508;1183;23450;-61
2022/03/22 03:39:37;;;;;;;12.70;5.50;;;;;;;6.24;39.59;102030.11;117463;1185;22343;-50
2022/03/22 03:42:06;;;;;;;14.40;5.40;;;;;;;6.22;39.38;102026.91;117486;1185;23870;-49
2022/03/22 03:47:25;;;;;;;11.20;6.00;;;;;;;6.21;39.59;102034.91;117503;1185;23450;-49
2022/03/22 03:50:01;;;;;;;12.90;6.30;;;;;;;6.20;39.61;102039.23;117347;1185;24169;-48
2022/03/22 03:52:32;;;;;;;14.00;5.10;;;;;;;6.20;39.74;102042.70;117413;1185;23533;-48
2022/03/22 03:55:03;;;;;;;10.40;4.90;;;;;;;6.22;39.68;102046.95;117505;1184;21856;-61
2022/03/22 03:57:32;;;;;;;10.30;5.20;;;;;;;6.22;39.82;102044.54;117451;1185;22086;-48
2022/03/22 04:00:07;;;;;;;12.30;5.00;;;;;;;6.24;39.84;102043.02;117481;1185;23524;-49
2022/03/22 04:02:35;;;;;;;12.00;4.80;;;;;;;6.24;39.82;102045.65;117446;1182;23004;-61
2022/03/22 04:05:07;;;;;;;8.10;4.90;;;;;;;6.24;39.78;102051.20;117698;1184;23573;-48
2022/03/22 04:07:35;;;;;;;14.50;5.70;;;;;;;6.23;39.88;102053.64;117495;1185;23432;-61
2022/03/22 04:10:05;;;;;;;15.20;5.60;;;;;;;6.26;39.82;102051.44;117343;1182;24150;-61
2022/03/22 04:12:40;;;;;;;10.10;4.80;;;;;;;6.30;39.87;102057.69;117529;1185;21966;-49
2022/03/22 04:15:10;;;;;;;12.70;5.70;;;;;;;6.32;39.87;102058.96;117494;1185;21840;-48
2022/03/22 04:17:39;;;;;;;10.80;5.20;;;;;;;6.32;39.92;102064.03;117536;1184;23448;-48
2022/03/22 04:20:09;;;;;;;10.90;5.10;;;;;;;6.33;39.90;102061.61;117481;1184;24272;-60
2022/03/22 04:22:37;;;;;;;10.60;5.00;;;;;;;6.35;39.95;102062.20;117507;1183;21860;-60
2022/03/22 04:25:07;;;;;;;10.80;5.30;;;;;;;6.36;40.07;102066.61;117452;1183;23934;-60
2022/03/22 04:33:10;;;;;;;12.30;5.50;;;;;;;6.39;39.96;102064.96;117447;1185;23469;-61
2022/03/22 04:35:39;;;;;;;12.70;5.20;;;;;;;6.39;40.21;102065.65;117482;1185;23628;-49
2022/03/22 04:38:09;;;;;;;10.10;4.80;;;;;;;6.40;40.12;102065.15;117477;1184;23576;-61
2022/03/22 04:40:39;;;;;;;11.90;5.80;;;;;;;6.44;40.32;102061.60;117564;1185;23542;-63
2022/03/22 04:43:07;;;;;;;11.20;5.50;;;;;;;6.49;40.38;102059.51;117427;1185;21888;-48
2022/03/22 04:45:36;;;;;;;11.10;5.00;;;;;;;6.58;40.51;102066.05;117467;1185;23442;-48
2022/03/22 04:48:05;;;;;;;15.50;5.30;;;;;;;6.63;40.16;102066.92;117426;1184;23489;-48
2022/03/22 04:50:34;;;;;;;15.00;6.10;;;;;;;6.69;40.61;102067.61;117339;1185;22307;-48
2022/03/22 04:58:37;;;;;;;14.40;6.40;;;;;;;6.95;40.70;102068.05;117507;1183;23491;-63
2022/03/22 05:01:05;;;;;;;19.50;5.90;;;;;;;6.99;40.72;102066.58;117373;1185;23438;-65
2022/03/22 05:03:34;;;;;;;15.40;6.40;;;;;;;6.98;40.84;102064.11;117500;1184;23566;-48
2022/03/22 05:08:50;;;;;;;12.70;5.00;;;;;;;7.10;41.09;102072.33;117556;1184;23442;-62
2022/03/22 05:11:18;;;;;;;16.30;5.60;;;;;;;7.15;41.21;102067.05;117497;1185;23451;-62
2022/03/22 05:13:47;;;;;;;14.60;5.90;;;;;;;7.22;41.02;102062.54;117410;1185;23659;-49
2022/03/22 05:16:15;;;;;;;16.60;5.40;;;;;;;7.26;40.98;102064.24;117581;1184;23455;-48
2022/03/22 05:18:48;;;;;;;9.20;4.30;;;;;;;7.28;41.10;102071.64;117284;1182;23573;-48
2022/03/22 05:21:17;;;;;;;12.10;5.10;;;;;;;7.32;41.16;102073.64;117349;1179;21890;-49
2022/03/22 05:23:47;;;;;;;12.20;5.10;;;;;;;7.36;41.19;102076.91;117296;1179;21859;-49
2022/03/22 05:26:16;;;;;;;17.30;6.50;;;;;;;7.41;41.35;102084.56;117260;1185;23890;-49
2022/03/22 05:28:56;;;;;;;10.10;5.10;;;;;;;7.49;41.08;102096.82;117259;1179;23445;-62
2022/03/22 05:31:25;;;;;;;11.90;5.10;;;;;;;7.55;41.19;102096.65;117329;1179;21968;-48
2022/03/22 05:33:54;;;;;;;13.50;5.80;;;;;;;7.63;41.12;102094.41;117267;1179;24164;-49
2022/03/22 05:36:22;;;;;;;13.30;5.70;;;;;;;7.70;41.17;102100.03;117387;1179;22193;-49
2022/03/22 05:38:52;;;;;;;11.40;5.00;;;;;;;7.79;41.36;102104.80;117429;1184;24472;-61
2022/03/22 05:41:22;;;;;;;14.90;5.30;;;;;;;7.90;41.21;102102.49;117227;1181;24187;-49
2022/03/22 05:43:51;;;;;;;12.90;5.80;;;;;;;7.98;41.20;102106.19;117370;1184;22104;-49
2022/03/22 05:46:20;;;;;;;12.90;5.20;;;;;;;8.21;41.05;102113.59;117559;1179;23467;-49
2022/03/22 05:48:51;;;;;;;18.90;7.30;;;;;;;8.37;41.16;102114.33;117447;1185;21859;-60
2022/03/22 05:51:19;;;;;;;9.90;4.80;;;;;;;8.49;41.11;102110.97;117358;1185;22175;-61
2022/03/22 05:53:48;;;;;;;21.20;8.50;;;;;;;8.61;41.29;102107.23;117415;1184;21865;-62
2022/03/22 05:56:17;;;;;;;11.70;5.10;;;;;;;8.72;41.13;102109.22;117480;1185;23445;-51
2022/03/22 05:58:45;;;;;;;14.90;6.10;;;;;;;8.79;41.00;102112.89;117459;1184;21852;-52
2022/03/22 06:01:15;;;;;;;12.10;5.40;;;;;;;8.89;41.16;102105.60;117465;1184;23576;-62
2022/03/22 06:03:44;;;;;;;10.20;5.70;;;;;;;9.04;41.21;102112.21;117294;1181;22678;-50
2022/03/22 06:06:15;;;;;;;13.80;5.90;;;;;;;9.24;41.40;102111.41;117265;1179;21846;-50
2022/03/22 06:08:45;;;;;;;14.40;5.60;;;;;;;9.41;41.39;102113.16;117227;1179;23551;-51
2022/03/22 06:11:14;;;;;;;10.80;5.30;;;;;;;9.57;41.35;102107.70;117504;1179;21997;-50
2022/03/22 06:13:45;;;;;;;14.80;5.30;;;;;;;9.70;41.33;102106.89;117378;1179;21932;-50
2022/03/22 06:16:16;;;;;;;11.70;5.50;;;;;;;9.85;41.38;102108.05;117537;1185;23585;-50
2022/03/22 06:18:44;;;;;;;9.10;4.90;;;;;;;10.00;41.54;102114.64;117493;1186;22985;-50
2022/03/22 06:21:12;;;;;;;11.10;4.50;;;;;;;10.13;41.47;102110.13;117478;1185;24183;-55
2022/03/22 06:23:42;;;;;;;12.20;5.30;;;;;;;10.25;41.34;102113.32;117516;1185;24167;-63
2022/03/22 06:26:11;;;;;;;15.10;4.70;;;;;;;10.37;41.28;102110.55;117436;1184;22995;-62
2022/03/22 06:28:39;;;;;;;14.20;4.50;;;;;;;10.53;41.32;102111.52;117335;1184;21852;-62
2022/03/22 06:31:09;;;;;;;14.20;5.00;;;;;;;10.66;41.32;102116.98;117381;1185;24768;-62
2022/03/22 06:33:37;;;;;;;14.40;4.70;;;;;;;10.80;41.22;102119.11;117436;1186;22983;-51
2022/03/22 06:36:08;;;;;;;15.00;4.80;;;;;;;10.94;41.28;102116.68;117303;1185;21858;-50
2022/03/22 06:38:39;;;;;;;10.40;4.60;;;;;;;11.07;41.21;102123.70;117535;1184;23576;-62
2022/03/22 06:41:07;;;;;;;;;;;;;;;11.21;41.25;102133.03;117403;1184;23518;-61
2022/03/22 06:43:36;;;;;;;12.00;4.20;;;;;;;11.31;41.29;102130.16;117507;1186;23547;-50
2022/03/22 06:46:05;;;;;;;9.10;4.10;;;;;;;11.43;41.34;102136.11;117290;1185;21844;-50
2022/03/22 06:48:36;;;;;;;10.20;4.00;;;;;;;11.59;41.26;102127.35;117426;1185;23665;-62
2022/03/22 06:51:05;;;;;;;13.80;4.00;;;;;;;11.74;41.19;102127.85;117479;1185;23544;-62
2022/03/22 06:53:34;;;;;;;13.60;3.70;;;;;;;11.88;41.28;102132.41;117471;1185;23572;-62
2022/03/22 06:56:05;;;;;;;12.40;4.00;;;;;;;12.02;41.09;102139.77;117449;1183;23556;-61
2022/03/22 06:58:33;;;;;;;13.70;4.30;;;;;;;12.20;41.10;102142.77;117466;1185;22929;-61
2022/03/22 07:01:04;;;;;;;10.50;4.00;;;;;;;12.38;41.22;102140.47;117473;1185;24141;-60
2022/03/22 07:03:33;;;;;;;10.30;4.10;;;;;;;12.53;41.05;102145.70;117442;1185;23524;-63
2022/03/22 07:06:02;;;;;;;13.30;4.30;;;;;;;12.67;41.11;102137.17;117519;1185;21860;-62
2022/03/22 07:08:31;;;;;;;13.30;4.50;;;;;;;12.86;41.09;102132.01;117365;1180;21980;-63
2022/03/22 07:14:03;;;;;;;10.40;4.40;;;;;;;13.31;40.98;102141.75;117455;1185;23553;-63
2022/03/22 07:16:31;;;;;;;13.30;4.20;;;;;;;13.51;40.89;102139.58;117478;1185;22921;-50
2022/03/22 07:19:00;;;;;;;10.80;3.30;;;;;;;13.65;40.75;102141.75;117392;1185;23472;-50
2022/03/22 07:21:30;;;;;;;10.10;3.60;;;;;;;13.77;40.79;102141.42;117441;1184;23445;-50
2022/03/22 07:23:59;;;;;;;8.70;3.90;;;;;;;13.90;40.75;102141.11;117401;1185;23444;-62
2022/03/22 07:26:28;;;;;;;12.30;4.30;;;;;;;14.00;40.54;102140.08;117521;1185;23459;-50
2022/03/22 07:28:57;;;;;;;11.10;3.80;;;;;;;14.11;40.53;102141.84;117382;1184;22803;-51
2022/03/22 07:31:26;;;;;;;10.10;3.60;;;;;;;14.20;40.57;102133.20;118390;1181;22324;-63
2022/03/22 07:33:54;;;;;;;9.30;3.40;;;;;;;14.31;40.56;102140.27;119579;1184;21760;-53
2022/03/22 07:36:23;;;;;;;9.80;3.60;;;;;;;14.44;40.46;102143.63;119584;1183;21823;-52
2022/03/22 07:39:12;;;;;;;9.90;3.40;;;;;;;14.61;40.44;102143.09;119586;1183;21742;-52
2022/03/22 07:41:44;;;;;;;12.70;3.70;;;;;;;14.72;40.37;102140.63;119512;1179;21800;-60
2022/03/22 07:44:15;;;;;;;10.80;3.00;;;;;;;14.85;40.35;102148.91;118250;1184;21789;-52
2022/03/22 07:46:45;;;;;;;11.20;4.10;;;;;;;15.08;40.35;102144.80;117607;1185;21904;-50
2022/03/22 07:54:54;;;;;;;7.80;3.40;;;;;;;15.61;40.00;102145.12;117445;1179;23368;-50
2022/03/22 07:57:24;;;;;;;9.80;3.10;;;;;;;15.77;40.00;102145.73;117471;1185;23588;-52
2022/03/22 07:59:53;;;;;;;7.10;3.00;;;;;;;15.90;39.89;102153.29;117428;1185;23472;-51
2022/03/22 08:02:21;;;;;;;9.60;3.10;;;;;;;16.05;39.83;102154.80;117457;1185;21875;-62
2022/03/22 08:04:53;;;;;;;10.00;3.60;;;;;;;16.11;39.70;102154.40;117455;1185;23488;-63
2022/03/22 08:07:21;;;;;;;9.70;3.40;;;;;;;16.14;39.58;102152.08;117539;1185;23627;-52
2022/03/22 08:09:50;;;;;;;9.20;2.50;;;;;;;16.15;39.78;102149.05;118801;1185;23547;-63
2022/03/22 08:12:39;;;;;;;12.90;2.80;;;;;;;16.22;39.47;102148.30;117368;1184;23880;-51
2022/03/22 08:15:09;;;;;;;8.40;2.70;;;;;;;16.39;39.57;102149.77;117508;1185;22990;-52
2022/03/22 08:17:41;;;;;;;8.30;2.90;;;;;;;16.47;39.45;102144.38;117485;1184;23561;-62
2022/03/22 08:20:10;;;;;;;9.80;2.80;;;;;;;16.50;39.48;102148.44;117379;1185;23573;-63
2022/03/22 08:23:06;;;;;;;12.40;3.00;;;;;;;16.56;39.36;102150.85;117441;1184;21892;-51
2022/03/22 08:25:37;;;;;;;11.00;3.20;;;;;;;16.74;39.41;102149.27;117374;1181;22986;-52
2022/03/22 08:28:07;;;;;;;8.30;3.40;;;;;;;16.89;39.30;102143.80;117385;1187;21839;-51
2022/03/22 08:30:36;;;;;;;9.80;2.50;;;;;;;17.02;39.31;102153.10;117448;1179;21854;-63
2022/03/22 08:33:07;;;;;;;10.50;2.20;;;;;;;17.16;39.30;102147.27;117433;1185;21846;-63
2022/03/22 08:35:41;;;;;;;11.80;3.10;;;;;;;17.25;39.25;102143.43;117235;1182;23461;-62
2022/03/22 08:38:10;;;;;;;9.10;2.70;;;;;;;17.33;39.13;102140.66;117361;1179;23441;-63
2022/03/22 08:40:39;;;;;;;9.40;3.20;;;;;;;17.39;39.10;102145.57;117363;1180;22925;-62
2022/03/22 08:43:08;;;;;;;7.00;2.40;;;;;;;17.47;38.99;102147.76;117358;1179;24152;-51
2022/03/22 08:45:38;;;;;;;8.70;2.50;;;;;;;17.60;39.05;102141.20;117244;1180;22631;-51
2022/03/22 08:48:11;;;;;;;7.20;1.90;;;;;;;17.74;38.99;102145.27;117345;1179;22924;-52
2022/03/22 08:50:44;;;;;;;10.80;2.80;;;;;;;17.88;38.95;102138.86;117329;1180;21854;-60
2022/03/22 08:53:13;;;;;;;7.70;2.30;;;;;;;18.03;38.83;102136.54;117194;1182;22075;-52
2022/03/22 08:55:46;;;;;;;10.90;3.00;;;;;;;18.15;38.72;102135.30;118805;1184;23649;-62
2022/03/22 08:58:16;;;;;;;6.50;2.60;;;;;;;18.28;38.80;102134.90;117411;1182;23570;-51
2022/03/22 09:00:45;;;;;;;7.50;1.60;;;;;;;18.45;38.68;102135.50;117633;1185;21886;-52
2022/03/22 09:03:14;;;;;;;9.10;2.20;;;;;;;18.57;38.51;102140.44;117556;1185;21855;-50
2022/03/22 09:08:42;;;;;;;5.10;1.90;;;;;;;18.77;38.30;102126.03;117421;1184;23469;-52
2022/03/22 09:11:11;;;;;;;4.50;1.50;;;;;;;18.90;38.26;102132.55;117515;1186;22995;-63
2022/03/22 09:13:40;;;;;;;6.00;1.90;;;;;;;18.94;38.13;102131.58;117519;1185;23445;-51
2022/03/22 09:16:20;;;;;;;11.70;1.90;;;;;;;18.99;38.24;102126.55;117320;1180;24174;-52
2022/03/22 09:18:49;;;;;;;8.90;2.20;;;;;;;19.04;37.96;102133.74;117238;1181;24542;-62
2022/03/22 09:21:19;;;;;;;12.90;2.10;;;;;;;19.08;38.00;102137.39;117420;1185;23474;-63
2022/03/22 09:23:48;;;;;;;6.50;1.50;;;;;;;19.18;38.09;102127.75;117466;1185;21853;-62
2022/03/22 09:26:16;;;;;;;5.80;2.00;;;;;;;19.28;37.92;102131.64;117470;1185;24206;-52
2022/03/22 09:28:52;;;;;;;4.90;1.60;;;;;;;19.35;37.81;102132.39;117358;1184;21854;-53
2022/03/22 09:31:23;;;;;;;8.60;1.80;;;;;;;19.41;37.66;102121.77;117602;1184;21961;-64
2022/03/22 09:33:53;;;;;;;8.10;1.60;;;;;;;19.40;37.80;102134.60;117491;1184;21854;-52
2022/03/22 09:36:22;;;;;;;7.40;2.60;;;;;;;19.50;37.79;102125.66;117492;1184;23445;-52
2022/03/22 09:38:51;;;;;;;6.90;1.60;;;;;;;19.56;37.48;102127.66;117480;1184;22619;-51
2022/03/22 09:41:19;;;;;;;5.60;1.50;;;;;;;19.65;37.45;102126.76;117533;1185;24163;-66
2022/03/22 09:43:52;;;;;;;12.10;2.70;;;;;;;19.77;37.63;102127.73;117315;1185;22819;-64
2022/03/22 09:46:22;;;;;;;5.90;1.50;;;;;;;19.87;37.49;102124.29;119629;1183;21760;-59
2022/03/22 09:48:50;;;;;;;6.60;1.90;;;;;;;19.94;37.35;102121.66;117946;1183;21858;-61
2022/03/22 09:54:07;;;;;;;4.60;1.10;;;;;;;20.02;37.19;102119.16;117444;1185;24700;-61
2022/03/22 09:56:40;;;;;;;4.00;1.50;;;;;;;20.08;37.11;102119.39;117459;1185;24206;-63
2022/03/22 09:59:08;;;;;;;13.40;1.70;;;;;;;20.15;37.13;102110.65;117432;1186;23013;-63
2022/03/22 10:01:37;;;;;;;6.40;1.30;;;;;;;20.24;37.13;102120.41;117441;1185;23432;-63
2022/03/22 10:04:13;;;;;;;5.90;1.20;;;;;;;20.35;37.08;102117.80;117461;1185;23413;-64
2022/03/22 10:06:51;;;;;;;5.30;2.00;;;;;;;20.46;37.09;102111.11;117397;1185;23550;-52
2022/03/22 10:09:40;;;;;;;5.30;1.50;;;;;;;20.59;37.08;102104.17;117669;1185;21891;-64
2022/03/22 10:12:11;;;;;;;6.30;1.80;;;;;;;20.71;37.03;102103.32;117495;1185;23442;-51
2022/03/22 10:15:14;;;;;;;7.10;1.30;;;;;;;20.80;36.87;102101.30;117404;1185;21852;-51
2022/03/22 10:17:46;;;;;;;6.60;1.80;;;;;;;20.86;36.69;102109.20;118619;1184;21932;-53
2022/03/22 10:20:37;;;;;;;6.80;1.90;;;;;;;20.88;36.62;102099.66;117441;1184;23551;-51
2022/03/22 10:23:06;;;;;;;;;;;;;;;20.89;36.56;102103.39;117387;1184;22994;-52
2022/03/22 10:25:40;;;;;;;7.30;1.60;;;;;;;20.87;36.39;102106.31;117412;1185;22922;-52
2022/03/22 10:28:09;;;;;;;5.50;1.70;;;;;;;20.87;36.41;102110.23;117399;1185;21849;-65
2022/03/22 10:30:38;;;;;;;7.60;2.30;;;;;;;20.96;36.48;102111.58;117474;1184;21859;-64
2022/03/22 10:33:09;;;;;;;6.20;1.80;;;;;;;21.11;36.41;102109.36;117367;1185;22648;-52
2022/03/22 10:35:39;;;;;;;8.10;1.70;;;;;;;21.21;36.34;102110.68;117442;1185;21857;-52
2022/03/22 10:38:09;;;;;;;6.70;1.40;;;;;;;21.28;36.33;102110.84;117500;1185;23445;-63
2022/03/22 10:40:44;;;;;;;5.80;1.70;;;;;;;21.34;36.24;102109.74;117412;1183;21861;-65
2022/03/22 10:43:23;;;;;;;9.80;1.60;;;;;;;21.42;36.06;102104.33;117416;1180;22964;-58
2022/03/22 10:46:01;;;;;;;6.70;1.90;;;;;;;21.47;36.08;102099.89;117514;1184;23472;-65
2022/03/22 10:48:32;;;;;;;6.20;2.30;;;;;;;21.47;35.92;102104.01;117422;1185;23278;-65
2022/03/22 10:51:01;;;;;;;5.60;1.50;;;;;;;21.47;35.80;102107.94;117409;1185;21860;-65
2022/03/22 10:53:31;;;;;;;7.90;1.90;;;;;;;21.50;35.84;102109.09;117442;1185;24181;-52
2022/03/22 10:56:02;;;;;;;6.30;2.20;;;;;;;21.57;35.88;102105.14;117519;1183;24248;-66
2022/03/22 10:58:34;;;;;;;4.00;1.60;;;;;;;21.67;35.79;102104.48;117418;1185;23462;-53
2022/03/22 11:01:06;;;;;;;6.50;2.00;;;;;;;21.79;35.85;102099.14;117523;1186;21843;-52
2022/03/22 11:03:35;;;;;;;5.70;1.70;;;;;;;21.88;35.67;102091.33;117266;1185;23628;-52
2022/03/22 11:06:04;;;;;;;8.50;2.30;;;;;;;21.95;35.62;102088.95;117707;1184;23448;-52
2022/03/22 11:08:40;;;;;;;10.90;1.70;;;;;;;22.02;35.52;102092.48;117378;1185;22985;-65
2022/03/22 11:11:09;;;;;;;9.60;1.70;;;;;;;22.04;35.60;102094.73;117379;1184;21873;-62
2022/03/22 11:13:58;;;;;;;5.60;1.60;;;;;;;22.07;35.59;102087.85;117371;1185;21847;-64
2022/03/22 11:16:27;;;;;;;5.70;1.50;;;;;;;22.12;35.52;102083.71;117374;1184;23472;-54
2022/03/22 11:19:12;;;;;;;5.40;1.60;;;;;;;22.18;35.48;102081.22;117730;1185;24191;-53
2022/03/22 11:21:42;;;;;;;6.80;1.90;;;;;;;22.27;35.55;102079.48;117308;1184;23625;-65
2022/03/22 11:24:12;;;;;;;5.70;1.70;;;;;;;22.33;35.32;102081.58;117494;1185;24163;-62
2022/03/22 11:26:46;;;;;;;6.30;1.50;;;;;;;22.37;35.16;102078.23;117686;1185;23550;-63
2022/03/22 11:29:17;;;;;;;5.70;1.80;;;;;;;22.40;35.15;102081.69;117506;1185;21842;-53
2022/03/22 11:34:08;;;;;;;4.70;1.50;;;;;;;22.45;35.20;102076.54;117652;1184;23543;-62
2022/03/22 11:34:38;;;;;;;10.60;2.00;;;;;;;22.49;35.12;102073.57;117375;1185;21893;-52
2022/03/22 11:37:09;;;;;;;7.80;1.80;;;;;;;22.54;35.07;102073.39;117218;1186;21842;-64
2022/03/22 11:42:27;;;;;;;6.30;1.60;;;;;;;22.64;34.87;102070.52;119263;1184;22144;-62
2022/03/22 11:45:03;;;;;;;10.00;1.80;;;;;;;22.67;34.83;102073.09;118600;1184;21845;-51
2022/03/22 11:47:42;;;;;;;10.60;2.00;;;;;;;22.68;34.69;102067.14;117564;1186;21855;-65
2022/03/22 11:50:13;;;;;;;8.90;2.00;;;;;;;22.66;34.67;102069.88;117466;1185;22921;-63
2022/03/22 11:52:48;;;;;;;4.90;1.60;;;;;;;22.65;34.61;102077.09;117494;1186;21849;-67
2022/03/22 11:55:22;;;;;;;5.10;1.80;;;;;;;22.58;34.42;102077.00;117439;1185;23538;-65
2022/03/22 11:57:52;;;;;;;5.90;1.50;;;;;;;22.53;34.43;102076.09;117496;1183;23078;-68
2022/03/22 12:00:21;;;;;;;;;;;;;;;22.52;34.33;102070.95;117342;1183;21870;-51
2022/03/22 12:02:54;;;;;;;4.30;1.60;;;;;;;22.51;34.29;102068.82;117506;1185;21852;-53
2022/03/22 12:05:23;;;;;;;5.40;1.70;;;;;;;22.52;34.12;102075.77;117389;1184;21848;-53
2022/03/22 12:07:53;;;;;;;7.50;1.60;;;;;;;22.42;34.00;102072.54;117478;1184;21849;-52
2022/03/22 12:10:51;;;;;;;4.60;1.50;;;;;;;22.30;34.05;102074.89;117379;1185;21837;-51
2022/03/22 12:13:20;;;;;;;5.70;1.80;;;;;;;22.25;34.06;102075.25;117485;1184;21849;-51